createdAt,value
2024-04-25T00:00:26.311Z,46.79
2024-04-25T00:02:54.810Z,46.69
2024-04-25T00:05:23.210Z,47.25
2024-04-25T00:07:51.616Z,46.60
2024-04-25T00:10:19.879Z,46.67
2024-04-25T00:12:48.220Z,46.89
2024-04-25T00:15:16.381Z,46.59
2024-04-25T00:17:44.805Z,46.85
2024-04-25T00:20:13.295Z,46.83
2024-04-25T00:22:41.668Z,46.53
2024-04-25T00:25:09.946Z,46.50
2024-04-25T00:27:38.323Z,46.41
2024-04-25T00:30:07.316Z,46.75
2024-04-25T00:32:36.533Z,47.22
2024-04-25T00:35:05.443Z,47.12
2024-04-25T00:37:34.044Z,47.73
2024-04-25T00:40:04.162Z,46.98
2024-04-25T00:42:32.340Z,46.81
2024-04-25T00:45:00.528Z,46.61
2024-04-25T00:47:30.741Z,47.12
2024-04-25T00:50:00.836Z,47.36
2024-04-25T00:52:31.027Z,47.51
2024-04-25T00:54:59.446Z,47.39
2024-04-25T00:57:29.494Z,47.68
2024-04-25T00:59:59.352Z,47.82
2024-04-25T01:02:29.032Z,48.38
2024-04-25T01:04:58.147Z,48.11
2024-04-25T01:07:26.379Z,48.00
2024-04-25T01:09:57.797Z,47.92
2024-04-25T01:12:27.427Z,48.57
2024-04-25T01:14:55.643Z,48.85
2024-04-25T01:17:23.581Z,51.79
2024-04-25T01:19:51.873Z,48.91
2024-04-25T01:22:21.180Z,48.45
2024-04-25T01:24:50.569Z,48.81
2024-04-25T01:27:19.816Z,48.41
2024-04-25T01:29:49.671Z,48.18
2024-04-25T01:32:18.603Z,48.77
2024-04-25T01:34:47.068Z,47.43
2024-04-25T01:37:15.642Z,48.23
2024-04-25T01:39:44.088Z,48.37
2024-04-25T01:42:12.459Z,48.53
2024-04-25T01:44:40.717Z,48.79
2024-04-25T01:47:09.105Z,48.50
2024-04-25T01:49:37.524Z,48.77
2024-04-25T01:52:06.405Z,48.07
2024-04-25T01:54:34.536Z,47.93
2024-04-25T01:57:02.404Z,50.64
2024-04-25T01:59:30.573Z,48.44
2024-04-25T02:01:58.939Z,47.93
2024-04-25T02:04:27.238Z,48.22
2024-04-25T02:06:55.612Z,48.28
2024-04-25T02:09:23.989Z,48.48
2024-04-25T02:11:52.409Z,48.03
2024-04-25T02:14:20.801Z,48.29
2024-04-25T02:16:49.292Z,48.30
2024-04-25T02:19:17.576Z,48.41
2024-04-25T02:22:04.204Z,48.10
2024-04-25T02:24:51.396Z,48.30
2024-04-25T02:27:19.689Z,48.48
2024-04-25T02:29:48.200Z,48.46
2024-04-25T02:32:16.618Z,48.53
2024-04-25T02:34:44.851Z,48.60
2024-04-25T02:37:12.812Z,51.19
2024-04-25T02:39:41.628Z,48.89
2024-04-25T02:42:10.055Z,49.05
2024-04-25T02:44:38.369Z,48.53
2024-04-25T02:47:06.688Z,48.98
2024-04-25T02:49:35.196Z,48.18
2024-04-25T02:52:03.840Z,48.19
2024-04-25T02:54:32.226Z,48.06
2024-04-25T02:57:00.736Z,48.03
2024-04-25T02:59:29.035Z,47.62
2024-04-25T03:01:57.358Z,48.25
2024-04-25T03:04:26.610Z,47.92
2024-04-25T03:06:55.085Z,47.82
2024-04-25T03:09:23.414Z,48.27
2024-04-25T03:11:51.954Z,48.44
2024-04-25T03:14:20.314Z,47.31
2024-04-25T03:16:48.564Z,47.22
2024-04-25T03:19:17.233Z,46.94
2024-04-25T03:21:45.628Z,47.32
2024-04-25T03:24:13.698Z,47.40
2024-04-25T03:26:42.076Z,46.88
2024-04-25T03:29:10.913Z,47.18
2024-04-25T03:31:39.121Z,47.23
2024-04-25T03:34:06.997Z,49.96
2024-04-25T03:36:35.617Z,47.36
2024-04-25T03:39:03.860Z,47.48
2024-04-25T03:41:34.340Z,47.02
2024-04-25T03:44:03.022Z,47.30
2024-04-25T03:46:31.292Z,46.75
2024-04-25T03:49:00.607Z,46.87
2024-04-25T03:51:28.781Z,46.96
2024-04-25T03:53:56.797Z,46.83
2024-04-25T03:56:24.683Z,49.31
2024-04-25T03:58:52.866Z,46.89
2024-04-25T04:01:21.687Z,46.53
2024-04-25T04:03:49.949Z,46.25
2024-04-25T04:06:24.392Z,46.16
2024-04-25T04:08:52.730Z,46.27
2024-04-25T04:11:21.463Z,45.81
2024-04-25T04:13:49.738Z,45.39
2024-04-25T04:16:18.199Z,45.04
2024-04-25T04:18:47.219Z,45.15
2024-04-25T04:21:15.531Z,45.63
2024-04-25T04:23:44.916Z,45.25
2024-04-25T04:26:13.219Z,44.90
2024-04-25T04:28:41.294Z,45.05
2024-04-25T04:31:09.175Z,45.84
2024-04-25T04:33:40.551Z,44.80
2024-04-25T04:36:09.515Z,44.66
2024-04-25T04:38:37.825Z,44.69
2024-04-25T04:41:06.442Z,44.55
2024-04-25T04:43:34.870Z,45.10
2024-04-25T04:46:05.484Z,45.14
2024-04-25T04:48:35.075Z,45.00
2024-04-25T04:51:04.548Z,44.56
2024-04-25T04:53:32.718Z,44.68
2024-04-25T04:56:01.200Z,44.85
2024-04-25T04:58:29.739Z,44.59
2024-04-25T05:00:58.064Z,43.92
2024-04-25T05:03:26.455Z,44.33
2024-04-25T05:05:54.847Z,43.75
2024-04-25T05:08:24.060Z,43.89
2024-04-25T05:10:52.377Z,44.21
2024-04-25T05:13:21.049Z,44.20
2024-04-25T05:15:49.362Z,44.09
2024-04-25T05:18:17.623Z,43.83
2024-04-25T05:20:46.132Z,44.40
2024-04-25T05:23:13.899Z,45.06
2024-04-25T05:25:42.177Z,44.26
2024-04-25T05:28:10.327Z,43.42
2024-04-25T05:30:38.630Z,43.23
2024-04-25T05:33:07.100Z,42.89
2024-04-25T05:35:36.034Z,42.38
2024-04-25T05:38:04.411Z,41.89
2024-04-25T05:40:33.056Z,42.27
2024-04-25T05:43:01.133Z,42.55
2024-04-25T05:45:29.557Z,42.50
2024-04-25T05:47:58.268Z,41.75
2024-04-25T05:50:26.841Z,41.65
2024-04-25T05:52:55.189Z,41.68
2024-04-25T05:55:23.377Z,41.19
2024-04-25T05:57:51.351Z,41.40
2024-04-25T06:00:20.039Z,40.85
2024-04-25T06:02:48.379Z,40.78
2024-04-25T06:05:16.564Z,40.93
2024-04-25T06:07:44.450Z,39.35
2024-04-25T06:10:13.274Z,39.91
2024-04-25T06:12:41.467Z,39.88
2024-04-25T06:15:09.749Z,39.87
2024-04-25T06:17:42.507Z,39.79
2024-04-25T06:20:14.312Z,39.40
2024-04-25T06:22:42.572Z,40.16
2024-04-25T06:25:10.781Z,39.09
2024-04-25T06:27:39.332Z,39.92
2024-04-25T06:30:08.172Z,38.70
2024-04-25T06:32:39.242Z,39.45
2024-04-25T06:35:08.517Z,38.63
2024-04-25T06:37:37.138Z,38.69
2024-04-25T06:40:05.927Z,38.91
2024-04-25T06:42:34.615Z,38.98
2024-04-25T06:45:03.039Z,38.60
2024-04-25T06:47:32.931Z,37.54
2024-04-25T06:50:01.551Z,38.34
2024-04-25T06:52:31.110Z,38.03
2024-04-25T06:54:59.424Z,38.69
2024-04-25T06:57:28.108Z,37.82
2024-04-25T06:59:58.003Z,37.41
2024-04-25T07:02:26.761Z,37.68
2024-04-25T07:04:58.422Z,36.18
2024-04-25T07:07:31.086Z,37.14
2024-04-25T07:09:59.411Z,36.90
2024-04-25T07:12:31.973Z,36.70
2024-04-25T07:15:05.906Z,35.89
2024-04-25T07:17:35.413Z,35.66
2024-04-25T07:20:04.857Z,35.92
2024-04-25T07:22:33.151Z,35.39
2024-04-25T07:25:01.333Z,34.04
2024-04-25T07:27:35.551Z,35.16
2024-04-25T07:30:03.988Z,34.96
2024-04-25T07:32:32.643Z,35.04
2024-04-25T07:35:00.944Z,34.44
2024-04-25T07:37:37.259Z,33.71
2024-04-25T07:40:06.658Z,34.48
2024-04-25T07:42:34.712Z,34.35
2024-04-25T07:45:05.768Z,34.20
2024-04-25T07:47:34.318Z,34.19
2024-04-25T07:50:02.818Z,33.85
2024-04-25T07:52:31.555Z,34.03
2024-04-25T07:54:59.711Z,33.60
2024-04-25T07:57:28.150Z,33.62
2024-04-25T07:59:59.282Z,33.26
2024-04-25T08:02:27.750Z,33.01
2024-04-25T08:04:57.248Z,33.16
2024-04-25T08:07:25.543Z,31.80
2024-04-25T08:09:55.595Z,32.77
2024-04-25T08:12:25.217Z,32.55
2024-04-25T08:14:53.539Z,32.77
2024-04-25T08:17:21.712Z,32.45
2024-04-25T08:19:54.325Z,32.11
2024-04-25T08:22:24.089Z,32.29
2024-04-25T08:24:53.282Z,31.88
2024-04-25T08:27:21.460Z,31.92
2024-04-25T08:29:50.268Z,29.54
2024-04-25T08:32:21.256Z,30.98
2024-04-25T08:34:50.853Z,30.65
2024-04-25T08:37:19.008Z,28.28
2024-04-25T08:39:47.292Z,30.07
2024-04-25T08:42:19.722Z,30.18
2024-04-25T08:44:50.380Z,30.38
2024-04-25T08:47:19.848Z,29.72
2024-04-25T08:49:50.130Z,29.20
2024-04-25T08:52:19.453Z,29.29
2024-04-25T08:54:50.922Z,29.03
2024-04-25T08:57:19.319Z,29.06
2024-04-25T08:59:47.669Z,27.96
2024-04-25T09:02:16.796Z,28.97
2024-04-25T09:04:46.283Z,27.34
2024-04-25T09:07:14.514Z,27.99
2024-04-25T09:09:42.532Z,28.93
2024-04-25T09:12:10.640Z,27.60
2024-04-25T09:14:39.071Z,27.69
2024-04-25T09:17:16.703Z,26.49
2024-04-25T09:19:45.984Z,27.62
2024-04-25T09:22:14.344Z,25.80
2024-04-25T09:24:42.898Z,26.95
2024-04-25T09:27:11.150Z,27.17
2024-04-25T09:29:39.515Z,25.45
2024-04-25T09:32:11.298Z,24.70
2024-04-25T09:34:39.411Z,23.14
2024-04-25T09:37:07.784Z,25.85
2024-04-25T09:39:37.634Z,23.29
2024-04-25T09:42:09.237Z,25.27
2024-04-25T09:44:39.540Z,25.36
2024-04-25T09:47:13.858Z,22.70
2024-04-25T09:49:53.046Z,23.41
2024-04-25T09:52:29.684Z,24.36
2024-04-25T09:55:04.715Z,22.32
2024-04-25T09:57:34.604Z,24.30
2024-04-25T10:00:08.368Z,24.75
2024-04-25T10:02:38.386Z,23.65
2024-04-25T10:05:07.200Z,24.69
2024-04-25T10:07:36.911Z,24.69
2024-04-25T10:10:06.101Z,24.58
2024-04-25T10:12:34.349Z,24.00
2024-04-25T10:15:04.252Z,23.75
2024-04-25T10:17:39.763Z,22.39
2024-04-25T10:20:09.275Z,22.41
2024-04-25T10:22:42.182Z,23.79
2024-04-25T10:25:16.866Z,21.75
2024-04-25T10:27:46.650Z,21.18
2024-04-25T10:30:17.544Z,23.04
2024-04-25T10:32:45.963Z,23.50
2024-04-25T10:35:15.276Z,22.71
2024-04-25T10:37:46.560Z,22.92
2024-04-25T10:40:16.812Z,22.77
2024-04-25T10:42:45.518Z,22.19
2024-04-25T10:45:13.663Z,20.87
2024-04-25T10:47:42.101Z,22.72
2024-04-25T10:50:10.640Z,21.98
2024-04-25T10:52:39.238Z,21.89
2024-04-25T10:55:07.975Z,21.82
2024-04-25T10:57:36.488Z,22.32
2024-04-25T11:00:05.305Z,21.63
2024-04-25T11:02:37.168Z,21.60
2024-04-25T11:05:06.629Z,19.97
2024-04-25T11:07:34.821Z,20.81
2024-04-25T11:10:03.012Z,20.67
2024-04-25T11:12:32.182Z,18.83
2024-04-25T11:15:01.017Z,19.56
2024-04-25T11:17:37.047Z,19.77
2024-04-25T11:20:10.226Z,20.19
2024-04-25T11:22:45.397Z,19.42
2024-04-25T11:25:21.674Z,19.89
2024-04-25T11:27:51.635Z,19.58
2024-04-25T11:30:19.946Z,19.13
2024-04-25T11:32:48.671Z,19.22
2024-04-25T11:35:23.551Z,18.50
2024-04-25T11:37:56.292Z,18.44
2024-04-25T11:40:38.004Z,17.36
2024-04-25T11:43:06.623Z,18.87
2024-04-25T11:45:36.133Z,17.64
2024-04-25T11:48:08.286Z,17.51
2024-04-25T11:50:36.911Z,18.37
2024-04-25T11:53:09.963Z,16.84
2024-04-25T11:55:40.142Z,17.25
2024-04-25T11:58:09.328Z,18.55
2024-04-25T12:00:38.573Z,18.59
2024-04-25T12:03:07.734Z,17.78
2024-04-25T12:05:36.547Z,17.42
2024-04-25T12:08:05.266Z,17.21
2024-04-25T12:10:33.778Z,16.88
2024-04-25T12:13:02.889Z,17.25
2024-04-25T12:15:31.110Z,16.64
2024-04-25T12:17:59.491Z,16.73
2024-04-25T12:20:27.926Z,15.95
2024-04-25T12:22:56.276Z,14.82
2024-04-25T12:25:24.679Z,16.46
2024-04-25T12:27:52.920Z,15.89
2024-04-25T12:30:21.038Z,16.00
2024-04-25T12:32:49.370Z,15.87
2024-04-25T12:35:17.731Z,15.37
2024-04-25T12:37:46.208Z,15.54
2024-04-25T12:40:14.534Z,15.55
2024-04-25T12:42:42.842Z,14.32
2024-04-25T12:45:18.052Z,14.84
2024-04-25T12:47:46.464Z,15.31
2024-04-25T12:50:17.476Z,15.09
2024-04-25T12:52:47.427Z,15.55
2024-04-25T12:55:15.665Z,15.14
2024-04-25T12:57:44.075Z,15.90
2024-04-25T13:00:13.507Z,15.09
2024-04-25T13:02:41.808Z,14.58
2024-04-25T13:05:09.929Z,14.75
2024-04-25T13:07:38.040Z,15.54
2024-04-25T13:10:06.410Z,15.34
2024-04-25T13:12:34.800Z,15.64
2024-04-25T13:15:03.058Z,15.98
2024-04-25T13:17:31.815Z,15.12
2024-04-25T13:20:00.253Z,15.33
2024-04-25T13:22:28.650Z,15.19
2024-04-25T13:24:57.443Z,15.05
2024-04-25T13:27:25.998Z,15.15
2024-04-25T13:29:54.384Z,14.42
2024-04-25T13:32:22.933Z,15.31
2024-04-25T13:34:53.438Z,15.04
2024-04-25T13:37:21.741Z,15.27
2024-04-25T13:39:54.448Z,15.37
2024-04-25T13:42:23.210Z,15.59
2024-04-25T13:44:51.378Z,15.73
2024-04-25T13:47:19.584Z,16.04
2024-04-25T13:49:47.825Z,15.90
2024-04-25T13:52:16.584Z,15.45
2024-04-25T13:54:45.226Z,15.37
2024-04-25T13:57:13.816Z,15.23
2024-04-25T13:59:42.128Z,14.72
2024-04-25T14:02:11.736Z,15.23
2024-04-25T14:04:40.446Z,15.38
2024-04-25T14:07:10.098Z,15.63
2024-04-25T14:09:42.944Z,15.42
2024-04-25T14:12:11.189Z,16.59
2024-04-25T14:14:39.347Z,16.41
2024-04-25T14:17:07.385Z,16.21
2024-04-25T14:19:35.565Z,16.39
2024-04-25T14:22:03.794Z,16.77
2024-04-25T14:24:35.524Z,16.17
2024-04-25T14:27:22.793Z,16.26
2024-04-25T14:29:51.047Z,16.43
2024-04-25T14:32:19.478Z,16.73
2024-04-25T14:34:48.785Z,16.93
2024-04-25T14:37:18.326Z,16.93
2024-04-25T14:39:46.452Z,16.60
2024-04-25T14:42:14.676Z,17.60
2024-04-25T14:44:42.780Z,17.97
2024-04-25T14:47:10.846Z,18.29
2024-04-25T14:49:40.169Z,18.38
2024-04-25T14:52:08.328Z,19.36
2024-04-25T14:54:36.567Z,19.56
2024-04-25T14:57:05.046Z,19.84
2024-04-25T14:59:33.471Z,20.48
2024-04-25T15:02:01.795Z,20.56
2024-04-25T15:31:32.369Z,23.67
2024-04-25T15:34:00.689Z,23.80
2024-04-25T15:36:29.075Z,23.72
2024-04-25T15:38:57.519Z,24.07
2024-04-25T15:41:25.945Z,24.19
2024-04-25T15:43:54.284Z,23.70
2024-04-25T15:46:22.642Z,23.59
2024-04-25T15:48:51.101Z,24.28
2024-04-25T15:51:19.391Z,23.95
2024-04-25T15:53:49.377Z,23.84
2024-04-25T15:56:17.725Z,24.06
2024-04-25T15:58:46.529Z,24.21
2024-04-25T16:01:16.222Z,24.88
2024-04-25T16:03:47.545Z,25.34
2024-04-25T16:06:20.446Z,25.62
2024-04-25T16:08:50.109Z,26.09
2024-04-25T16:11:18.486Z,26.37
2024-04-25T16:31:34.233Z,28.72
2024-04-25T16:34:02.750Z,28.47
2024-04-25T16:36:32.164Z,28.54
2024-04-25T16:39:00.471Z,28.55
2024-04-25T16:41:28.834Z,28.40
2024-04-25T16:43:57.998Z,28.28
2024-04-25T16:46:26.182Z,28.31
2024-04-25T16:50:52.902Z,28.43
2024-04-25T16:53:21.529Z,28.93
2024-04-25T16:55:50.968Z,28.61
2024-04-25T16:58:19.365Z,28.77
2024-04-25T17:00:47.970Z,28.74
2024-04-25T17:03:44.595Z,28.43
2024-04-25T17:06:15.265Z,28.36
2024-04-25T17:08:44.353Z,28.84
2024-04-25T17:11:28.987Z,30.28
2024-04-25T17:14:05.274Z,28.76
2024-04-25T17:16:35.736Z,29.13
2024-04-25T17:19:06.648Z,29.39
2024-04-25T17:21:39.104Z,29.97
2024-04-25T17:24:07.978Z,30.85
2024-04-25T17:26:37.087Z,31.27
2024-04-25T17:29:07.218Z,32.01
2024-04-25T17:32:03.112Z,36.64
2024-04-25T17:34:31.508Z,32.77
2024-04-25T17:36:59.776Z,33.55
2024-04-25T17:39:29.836Z,34.09
2024-04-25T17:41:58.843Z,34.28
2024-04-25T17:44:29.814Z,34.88
2024-04-25T17:47:01.728Z,34.76
2024-04-25T17:49:31.499Z,35.50
2024-04-25T17:52:03.153Z,36.20
2024-04-25T17:54:31.446Z,35.73
2024-04-25T17:56:59.888Z,35.42
2024-04-25T17:59:28.290Z,35.65
2024-04-25T18:01:57.902Z,35.98
2024-04-25T18:04:26.633Z,36.62
2024-04-25T18:06:57.003Z,38.71
2024-04-25T18:09:25.395Z,36.08
2024-04-25T18:11:53.948Z,36.65
2024-04-25T18:14:22.358Z,36.58
2024-04-25T18:16:50.649Z,36.65
2024-04-25T18:19:18.957Z,36.98
2024-04-25T18:21:48.978Z,37.17
2024-04-25T18:24:18.163Z,37.15
2024-04-25T18:26:47.893Z,37.47
2024-04-25T18:29:16.246Z,36.96
2024-04-25T18:31:44.550Z,37.45
2024-04-25T18:34:12.929Z,38.04
2024-04-25T18:36:41.161Z,38.77
2024-04-25T18:39:12.464Z,38.40
2024-04-25T18:41:41.183Z,37.68
2024-04-25T18:44:09.375Z,38.41
2024-04-25T18:46:37.726Z,38.34
2024-04-25T18:49:10.217Z,39.01
2024-04-25T18:51:39.198Z,39.34
2024-04-25T18:54:07.554Z,38.57
2024-04-25T18:56:37.074Z,39.04
2024-04-25T18:59:05.950Z,39.07
2024-04-25T19:01:34.195Z,38.75
2024-04-25T19:04:02.612Z,39.15
2024-04-25T19:06:30.812Z,38.82
2024-04-25T19:09:00.541Z,39.13
2024-04-25T19:11:28.830Z,39.60
2024-04-25T19:13:58.016Z,39.90
2024-04-25T19:16:27.082Z,39.73
2024-04-25T19:18:55.471Z,39.87
2024-04-25T19:21:23.675Z,40.38
2024-04-25T19:23:52.778Z,41.07
2024-04-25T19:26:20.986Z,40.46
2024-04-25T19:28:49.145Z,40.78
2024-04-25T19:31:17.313Z,40.94
2024-04-25T19:33:47.813Z,41.14
2024-04-25T19:36:16.880Z,40.87
2024-04-25T19:38:45.457Z,40.41
2024-04-25T19:41:13.840Z,40.77
2024-04-25T19:43:41.915Z,41.04
2024-04-25T19:46:13.860Z,42.11
2024-04-25T19:48:44.222Z,41.20
2024-04-25T19:51:12.565Z,41.08
2024-04-25T19:53:43.856Z,41.44
2024-04-25T19:56:14.750Z,41.34
2024-04-25T19:58:45.693Z,41.41
2024-04-25T20:01:17.432Z,41.14
2024-04-25T20:03:46.640Z,41.43
2024-04-25T20:06:17.268Z,41.69
2024-04-25T20:08:45.453Z,41.41
2024-04-25T20:11:13.704Z,41.60
2024-04-25T20:13:42.577Z,41.62
2024-04-25T20:16:17.506Z,43.37
2024-04-25T20:19:04.692Z,41.60
2024-04-25T20:21:34.158Z,41.70
2024-04-25T20:24:05.245Z,41.60
2024-04-25T20:26:34.111Z,41.72
2024-04-25T20:29:02.330Z,41.88
2024-04-25T20:31:30.379Z,42.03
2024-04-25T20:34:01.784Z,46.55
2024-04-25T20:36:29.906Z,42.29
2024-04-25T20:38:58.004Z,46.07
2024-04-25T20:41:27.851Z,42.28
2024-04-25T20:43:56.133Z,42.73
2024-04-25T20:46:25.059Z,42.71
2024-04-25T20:48:56.574Z,43.38
2024-04-25T20:51:26.708Z,43.79
2024-04-25T20:53:54.939Z,43.77
2024-04-25T20:56:24.110Z,44.56
2024-04-25T20:58:52.601Z,43.95
2024-04-25T21:01:20.973Z,44.48
2024-04-25T21:03:49.227Z,44.75
2024-04-25T21:06:17.305Z,44.60
2024-04-25T21:08:45.231Z,48.23
2024-04-25T21:11:13.565Z,44.61
2024-04-25T21:13:41.812Z,44.60
2024-04-25T21:16:12.858Z,44.69
2024-04-25T21:18:41.043Z,44.37
2024-04-25T21:21:09.587Z,44.62
2024-04-25T21:23:37.777Z,44.73
2024-04-25T21:26:07.099Z,44.68
2024-04-25T21:28:35.242Z,44.47
2024-04-25T21:31:03.452Z,47.30
2024-04-25T21:33:31.678Z,44.09
2024-04-25T21:35:59.975Z,44.13
2024-04-25T21:38:28.203Z,43.77
2024-04-25T21:40:57.408Z,44.39
2024-04-25T21:43:27.101Z,43.94
2024-04-25T21:45:55.257Z,44.08
2024-04-25T21:48:24.187Z,46.11
2024-04-25T21:50:53.991Z,44.16
2024-04-25T21:53:23.915Z,44.28
2024-04-25T21:55:52.193Z,44.09
2024-04-25T21:58:20.511Z,44.66
2024-04-25T22:00:48.715Z,44.39
2024-04-25T22:03:16.995Z,44.04
2024-04-25T22:05:45.083Z,44.37
2024-04-25T22:08:13.352Z,44.70
2024-04-25T22:10:41.481Z,44.51
2024-04-25T22:13:09.954Z,45.64
2024-04-25T22:15:38.497Z,44.75
2024-04-25T22:18:08.257Z,45.43
2024-04-25T22:20:36.519Z,45.12
2024-04-25T22:23:05.180Z,45.25
2024-04-25T22:25:33.542Z,45.32
2024-04-25T22:28:01.832Z,45.74
2024-04-25T22:30:30.282Z,45.85
2024-04-25T22:32:58.668Z,45.48
2024-04-25T22:35:26.982Z,45.54
2024-04-25T22:37:55.381Z,45.49
2024-04-25T22:40:23.574Z,45.50
2024-04-25T22:42:51.561Z,45.70
2024-04-25T22:45:24.790Z,46.10
2024-04-25T22:47:56.953Z,45.72
2024-04-25T22:50:25.228Z,45.70
2024-04-25T22:52:53.432Z,45.63
2024-04-25T22:55:21.643Z,48.27
2024-04-25T22:57:49.857Z,46.04
2024-04-25T23:00:18.309Z,45.78
2024-04-25T23:02:47.193Z,46.45
2024-04-25T23:05:15.793Z,46.14
2024-04-25T23:07:46.704Z,47.53
2024-04-25T23:10:15.106Z,45.92
2024-04-25T23:12:43.283Z,46.33
2024-04-25T23:15:11.379Z,46.59
2024-04-25T23:17:39.368Z,49.27
2024-04-25T23:20:07.983Z,46.70
2024-04-25T23:22:36.339Z,46.77
2024-04-25T23:25:04.587Z,47.05
2024-04-25T23:27:34.385Z,47.41
2024-04-25T23:30:02.626Z,47.32
2024-04-25T23:32:31.529Z,47.22
2024-04-25T23:34:59.765Z,47.31
2024-04-25T23:37:27.468Z,50.65
2024-04-25T23:39:55.793Z,47.58
2024-04-25T23:42:23.942Z,47.72
2024-04-25T23:44:52.449Z,47.64
2024-04-25T23:47:21.648Z,47.48
2024-04-25T23:49:50.032Z,47.90
2024-04-25T23:52:18.988Z,47.50
2024-04-25T23:54:47.922Z,47.39
2024-04-25T23:57:15.965Z,47.63
2024-04-25T23:59:44.103Z,47.94
